Time;durP1;ratioP1;P1;durP2;ratioP2;P2;SDS_P1;SDS_P2;PMS_P1;PMS_P2;Temp;Humidity;BMP_temperature;BMP_pressure;BME280_temperature;BME280_humidity;BME280_pressure;Samples;Min_cycle;Max_cycle;Signal;HPM_P1;HPM_P2
2022/01/24 00:01:18;;;;;;;3.20;2.40;;;21.60;33.60;;;;;;5092484;28;20467;-68
2022/01/24 00:03:45;;;;;;;2.72;2.25;;;21.60;33.50;;;;;;5093568;28;20424;-72
2022/01/24 00:06:14;;;;;;;2.77;2.23;;;21.60;33.60;;;;;;5093377;28;20406;-64
2022/01/24 00:08:40;;;;;;;2.80;2.33;;;21.60;33.60;;;;;;5093193;28;20386;-62
2022/01/24 00:11:10;;;;;;;3.17;2.47;;;21.50;33.50;;;;;;5093450;28;20459;-71
2022/01/24 00:16:28;;;;;;;3.00;2.42;;;21.50;33.50;;;;;;5093249;28;20888;-73
2022/01/24 00:26:48;;;;;;;2.50;2.10;;;21.50;33.50;;;;;;5093177;28;20392;-72
2022/01/24 00:29:19;;;;;;;3.10;2.37;;;21.50;33.50;;;;;;5093054;28;20389;-72
2022/01/24 00:31:46;;;;;;;3.75;2.42;;;21.50;33.50;;;;;;5093107;28;20400;-68
2022/01/24 00:34:12;;;;;;;2.97;2.50;;;21.50;33.50;;;;;;5093062;28;20376;-63
2022/01/24 00:36:38;;;;;;;2.60;2.17;;;21.50;33.50;;;;;;5092719;28;20394;-72
2022/01/24 00:39:05;;;;;;;3.13;2.20;;;21.50;33.50;;;;;;5092994;28;20473;-65
2022/01/24 00:41:40;;;;;;;2.55;2.30;;;21.50;33.40;;;;;;5092893;28;20421;-63
2022/01/24 00:46:55;;;;;;;2.70;2.20;;;21.50;33.40;;;;;;5092906;28;20381;-70
2022/01/24 00:49:45;;;;;;;3.33;2.20;;;21.50;33.40;;;;;;5092567;28;20404;-69
2022/01/24 00:54:55;;;;;;;2.75;2.08;;;21.50;33.30;;;;;;5092737;28;20911;-62
2022/01/24 00:57:21;;;;;;;2.55;1.95;;;21.50;33.30;;;;;;5092669;28;20386;-70
2022/01/24 00:59:48;;;;;;;2.95;2.30;;;21.50;33.30;;;;;;5092633;28;20382;-72
2022/01/24 01:02:15;;;;;;;2.75;2.05;;;21.40;33.20;;;;;;5091227;28;20846;-62
2022/01/24 01:07:31;;;;;;;2.72;2.15;;;21.40;33.10;;;;;;5092519;28;20813;-71
2022/01/24 01:18:15;;;;;;;2.92;2.22;;;21.40;33.20;;;;;;5092604;28;20738;-68
2022/01/24 01:21:07;;;;;;;2.47;1.90;;;21.40;33.20;;;;;;5091900;28;20378;-70
2022/01/24 01:23:32;;;;;;;2.70;2.20;;;21.30;33.20;;;;;;5091933;28;20742;-62
2022/01/24 01:26:01;;;;;;;3.07;2.37;;;21.40;33.10;;;;;;5092051;28;20866;-69
2022/01/24 01:28:29;;;;;;;2.55;1.98;;;21.30;33.10;;;;;;5091535;28;20397;-70
2022/01/24 01:30:59;;;;;;;2.40;1.95;;;21.30;33.10;;;;;;5092022;28;20435;-63
2022/01/24 01:33:37;;;;;;;2.15;1.95;;;21.30;33.10;;;;;;5091903;28;20385;-69
2022/01/24 01:52:51;;;;;;;2.80;2.00;;;21.30;33.00;;;;;;5091153;28;20385;-72
2022/01/24 01:55:36;;;;;;;3.10;2.15;;;21.20;33.00;;;;;;5091663;28;20394;-65
2022/01/24 01:58:04;;;;;;;2.70;2.10;;;21.20;33.00;;;;;;5091750;28;20465;-69
2022/01/24 02:00:30;;;;;;;2.42;1.80;;;21.20;33.00;;;;;;5091042;28;20443;-66
2022/01/24 02:02:56;;;;;;;2.50;1.90;;;21.20;33.00;;;;;;5091689;28;20399;-71
2022/01/24 02:05:22;;;;;;;2.40;1.90;;;21.20;33.00;;;;;;5091693;28;20442;-63
2022/01/24 02:07:50;;;;;;;2.78;1.80;;;21.20;32.90;;;;;;5091493;28;20481;-64
2022/01/24 02:10:17;;;;;;;2.37;1.80;;;21.20;32.90;;;;;;5091487;28;20433;-62
2022/01/24 02:12:42;;;;;;;2.37;1.60;;;21.20;32.90;;;;;;5091291;28;20389;-63
2022/01/24 02:15:10;;;;;;;2.00;1.60;;;21.20;32.90;;;;;;5091601;28;20389;-62
2022/01/24 02:25:55;;;;;;;2.95;1.90;;;21.20;32.90;;;;;;5095769;28;20378;-67
2022/01/24 02:28:21;;;;;;;2.25;1.80;;;21.20;32.90;;;;;;5095298;28;20457;-63
2022/01/24 02:30:58;;;;;;;2.50;1.80;;;21.20;32.80;;;;;;5095425;28;20410;-66
2022/01/24 02:33:24;;;;;;;2.20;1.70;;;21.20;32.80;;;;;;5095478;28;20374;-73
2022/01/24 02:35:51;;;;;;;2.72;1.80;;;21.20;32.80;;;;;;5095397;28;20548;-64
2022/01/24 02:46:00;;;;;;;2.15;1.67;;;21.20;32.90;;;;;;5095025;28;20392;-72
2022/01/24 02:48:59;;;;;;;2.47;1.65;;;21.10;32.80;;;;;;5095170;28;20409;-69
2022/01/24 02:51:59;;;;;;;2.47;1.73;;;21.10;32.80;;;;;;5094996;28;20414;-68
2022/01/24 02:54:27;;;;;;;2.00;1.63;;;21.10;32.80;;;;;;5092774;28;20398;-66
2022/01/24 02:56:53;;;;;;;2.50;1.63;;;21.10;32.80;;;;;;5095044;28;20385;-63
2022/01/24 02:59:19;;;;;;;2.50;1.70;;;21.10;32.80;;;;;;5094910;28;20398;-63
2022/01/24 03:01:45;;;;;;;2.15;1.65;;;21.10;32.80;;;;;;5094835;28;20389;-69
2022/01/24 03:04:11;;;;;;;2.08;1.70;;;21.10;32.80;;;;;;5094796;28;20393;-63
2022/01/24 03:06:37;;;;;;;2.13;1.60;;;21.10;32.80;;;;;;5094322;28;20406;-69
2022/01/24 03:09:07;;;;;;;2.70;1.75;;;21.10;32.80;;;;;;5094830;28;20389;-67
2022/01/24 03:14:19;;;;;;;2.40;1.67;;;21.00;32.70;;;;;;5094687;28;20373;-66
2022/01/24 03:16:45;;;;;;;2.40;1.60;;;21.00;32.70;;;;;;5094390;28;20394;-70
2022/01/24 03:19:11;;;;;;;2.60;1.63;;;21.00;32.70;;;;;;5094533;28;20435;-69
2022/01/24 03:21:37;;;;;;;2.25;1.60;;;21.10;32.80;;;;;;5094440;28;20448;-67
2022/01/24 03:24:03;;;;;;;1.90;1.40;;;21.00;32.70;;;;;;5094482;28;20776;-65
2022/01/24 03:26:28;;;;;;;2.20;1.70;;;21.00;32.70;;;;;;5093939;28;20878;-63
2022/01/24 03:28:54;;;;;;;2.10;1.70;;;21.00;32.70;;;;;;5094442;28;20814;-70
2022/01/24 03:31:20;;;;;;;2.92;1.73;;;21.00;32.80;;;;;;5094280;28;20462;-62
2022/01/24 03:33:45;;;;;;;2.27;1.70;;;21.00;32.70;;;;;;5093413;28;20413;-71
2022/01/24 03:36:11;;;;;;;2.38;1.77;;;21.00;32.70;;;;;;5094154;28;20394;-62
2022/01/24 03:38:37;;;;;;;2.20;1.80;;;21.00;32.70;;;;;;5093567;28;20390;-62
2022/01/24 03:41:04;;;;;;;2.37;1.63;;;21.00;32.70;;;;;;5094221;28;20386;-62
2022/01/24 03:43:29;;;;;;;2.00;1.60;;;21.00;32.70;;;;;;5093937;28;20396;-67
2022/01/24 03:46:26;;;;;;;2.33;1.80;;;21.00;32.70;;;;;;5094059;28;20382;-66
2022/01/24 03:48:56;;;;;;;1.95;1.70;;;21.00;32.70;;;;;;5093800;28;20413;-62
2022/01/24 03:51:23;;;;;;;2.33;1.80;;;21.00;32.60;;;;;;5092503;28;20422;-62
2022/01/24 03:53:50;;;;;;;2.27;1.80;;;20.90;32.60;;;;;;5092537;28;20936;-62
2022/01/24 03:56:16;;;;;;;2.20;1.60;;;20.90;32.60;;;;;;5093835;28;20390;-62
2022/01/24 03:58:44;;;;;;;2.58;1.75;;;20.90;32.60;;;;;;5093261;28;20467;-63
2022/01/24 04:01:10;;;;;;;3.17;1.90;;;20.90;32.60;;;;;;5093694;28;20394;-70
2022/01/24 04:03:37;;;;;;;3.00;1.80;;;20.90;32.60;;;;;;5093748;28;20928;-66
2022/01/24 04:06:04;;;;;;;3.10;2.00;;;20.90;32.80;;;;;;5093767;28;20473;-67
2022/01/24 04:08:30;;;;;;;2.50;2.00;;;20.90;32.70;;;;;;5093128;28;20742;-70
2022/01/24 04:10:57;;;;;;;3.38;2.10;;;20.90;32.80;;;;;;5093592;28;20417;-69
2022/01/24 04:13:34;;;;;;;3.50;2.45;;;20.90;33.10;;;;;;5093493;28;20386;-68
2022/01/24 04:18:33;;;;;;;6.88;2.33;;;21.00;34.20;;;;;;5094548;28;20731;-62
2022/01/24 04:23:51;;;;;;;3.80;2.17;;;21.10;34.60;;;;;;5093480;28;20381;-63
2022/01/24 04:26:17;;;;;;;4.80;2.35;;;21.10;34.90;;;;;;5093052;28;20413;-64
2022/01/24 04:28:42;;;;;;;4.88;2.30;;;21.20;36.00;;;;;;5092654;28;20708;-71
2022/01/24 04:31:08;;;;;;;3.63;2.30;;;21.20;35.00;;;;;;5092906;28;20402;-64
2022/01/24 04:33:34;;;;;;;3.00;2.33;;;21.20;35.00;;;;;;5092971;28;20431;-62
2022/01/24 04:35:59;;;;;;;3.43;2.00;;;21.20;35.30;;;;;;5093555;28;20393;-65
2022/01/24 04:38:26;;;;;;;3.85;2.10;;;21.30;35.30;;;;;;5092669;28;20425;-68
2022/01/24 04:40:57;;;;;;;4.15;2.47;;;21.30;34.70;;;;;;5092607;28;20417;-61
2022/01/24 04:56:29;;;;;;;3.23;2.13;;;21.30;34.80;;;;;;5092097;28;20405;-63
2022/01/24 04:58:55;;;;;;;3.50;2.10;;;21.30;34.70;;;;;;5092566;28;20390;-71
2022/01/24 05:01:21;;;;;;;2.92;2.13;;;21.30;34.50;;;;;;5092515;28;20383;-63
2022/01/24 05:03:46;;;;;;;2.70;2.03;;;21.20;34.20;;;;;;5092264;28;20386;-62
2022/01/24 05:06:12;;;;;;;2.28;1.85;;;21.20;34.00;;;;;;5092519;28;20378;-67
2022/01/24 05:08:38;;;;;;;2.80;2.10;;;21.20;34.20;;;;;;5091917;28;20378;-67
2022/01/24 05:11:08;;;;;;;3.00;1.70;;;21.10;34.50;;;;;;5092367;28;20804;-66
2022/01/24 05:24:22;;;;;;;3.70;1.80;;;21.10;34.70;;;;;;5092315;28;20386;-69
2022/01/24 05:26:48;;;;;;;3.90;1.95;;;21.10;34.30;;;;;;5091657;28;20469;-67
2022/01/24 05:29:14;;;;;;;3.55;2.00;;;21.10;34.10;;;;;;5092046;28;20400;-62
2022/01/24 05:31:40;;;;;;;3.17;1.63;;;21.10;33.90;;;;;;5093373;28;20750;-69
2022/01/24 05:34:05;;;;;;;2.33;1.90;;;21.10;33.30;;;;;;5092063;28;20903;-66
2022/01/24 05:36:31;;;;;;;2.40;1.88;;;21.10;33.50;;;;;;5090239;28;20492;-66
2022/01/24 05:38:57;;;;;;;3.10;2.00;;;21.00;33.80;;;;;;5092094;28;20465;-72
2022/01/24 05:41:23;;;;;;;2.58;1.85;;;21.00;34.40;;;;;;5092388;28;20472;-67
2022/01/24 05:43:49;;;;;;;2.35;1.80;;;21.00;34.60;;;;;;5091619;28;20397;-71
2022/01/24 05:46:14;;;;;;;3.20;1.75;;;21.00;34.50;;;;;;5091959;28;20398;-71
2022/01/24 05:48:40;;;;;;;2.50;1.97;;;21.00;34.20;;;;;;5091216;28;20398;-61
2022/01/24 05:51:05;;;;;;;4.57;1.75;;;21.00;34.40;;;;;;5091266;28;20467;-67
2022/01/24 05:53:31;;;;;;;3.80;1.97;;;21.00;34.40;;;;;;5079829;28;20396;-65
2022/01/24 05:55:59;;;;;;;2.92;1.83;;;21.00;34.40;;;;;;5069228;28;20391;-67
2022/01/24 05:58:24;;;;;;;4.03;2.13;;;21.00;34.80;;;;;;5070263;28;20388;-67
2022/01/24 06:00:50;;;;;;;2.58;1.70;;;21.00;34.20;;;;;;5068597;28;20511;-66
2022/01/24 06:03:16;;;;;;;2.40;1.80;;;21.00;34.60;;;;;;5070487;28;20391;-66
2022/01/24 06:05:41;;;;;;;3.85;1.90;;;21.00;35.20;;;;;;5070856;28;20396;-72
2022/01/24 06:08:07;;;;;;;4.80;2.10;;;21.10;35.10;;;;;;5070401;28;20383;-65
2022/01/24 06:10:32;;;;;;;3.58;2.00;;;21.10;35.60;;;;;;5073833;28;20864;-63
2022/01/24 06:12:58;;;;;;;3.88;2.25;;;21.20;35.10;;;;;;5069849;28;20396;-70
2022/01/24 06:15:24;;;;;;;3.87;2.40;;;21.20;35.30;;;;;;5070352;28;20465;-66
2022/01/24 06:17:49;;;;;;;3.38;2.20;;;21.20;35.50;;;;;;5073384;28;20392;-68
2022/01/24 06:20:15;;;;;;;3.10;2.10;;;21.20;35.60;;;;;;5070177;28;20444;-61
2022/01/24 06:22:41;;;;;;;3.50;2.00;;;21.20;35.50;;;;;;5069272;28;20408;-68
2022/01/24 06:25:08;;;;;;;2.63;1.83;;;21.30;35.30;;;;;;5052088;28;20407;-70
2022/01/24 06:27:35;;;;;;;3.70;1.70;;;21.20;35.20;;;;;;5069017;28;20467;-61
2022/01/24 06:30:00;;;;;;;2.90;1.80;;;21.30;35.30;;;;;;5052514;28;20434;-73
2022/01/24 06:32:26;;;;;;;3.03;1.80;;;21.30;35.30;;;;;;5070232;28;20859;-72
2022/01/24 06:34:52;;;;;;;2.77;1.90;;;21.30;35.40;;;;;;5069720;28;20824;-67
2022/01/24 06:37:17;;;;;;;2.35;1.60;;;21.30;35.30;;;;;;5051940;28;20402;-72
2022/01/24 06:39:43;;;;;;;3.57;1.70;;;21.30;35.10;;;;;;5070260;28;20398;-61
2022/01/24 06:42:14;;;;;;;2.28;1.60;;;21.30;35.10;;;;;;5051775;28;20721;-73
2022/01/24 06:44:40;;;;;;;2.40;1.60;;;21.30;35.00;;;;;;5061731;28;20867;-62
2022/01/24 06:47:06;;;;;;;2.77;1.70;;;21.30;34.50;;;;;;5053546;28;20819;-62
2022/01/24 06:49:32;;;;;;;3.60;1.85;;;21.20;35.20;;;;;;5076367;28;20497;-71
2022/01/24 06:51:57;;;;;;;2.45;1.70;;;21.20;35.10;;;;;;5089964;28;20472;-67
2022/01/24 06:54:23;;;;;;;2.70;1.60;;;21.20;34.90;;;;;;5090028;28;20473;-63
2022/01/24 06:56:49;;;;;;;2.35;1.52;;;21.20;34.60;;;;;;5089966;28;20769;-62
2022/01/24 06:59:15;;;;;;;3.00;1.70;;;21.20;34.40;;;;;;5090111;28;20383;-63
2022/01/24 07:01:40;;;;;;;2.53;1.55;;;21.20;34.40;;;;;;5089932;28;20465;-69
2022/01/24 07:04:06;;;;;;;2.00;1.52;;;21.20;34.20;;;;;;5090590;28;20389;-68
2022/01/24 07:06:31;;;;;;;2.10;1.70;;;21.20;34.20;;;;;;5090277;28;20746;-68
2022/01/24 07:08:57;;;;;;;2.35;1.77;;;21.20;33.80;;;;;;5089914;28;20386;-65
2022/01/24 07:11:23;;;;;;;2.00;1.60;;;21.10;33.80;;;;;;5094239;28;20901;-61
2022/01/24 07:13:50;;;;;;;2.00;1.47;;;21.10;33.70;;;;;;5094530;28;20386;-70
2022/01/24 07:16:16;;;;;;;2.53;1.50;;;21.00;33.70;;;;;;5094285;28;20857;-69
2022/01/24 07:18:58;;;;;;;1.80;1.50;;;21.00;33.60;;;;;;5093876;28;20382;-72
2022/01/24 07:21:24;;;;;;;2.30;1.60;;;21.00;33.60;;;;;;5093807;28;20909;-68
2022/01/24 07:23:50;;;;;;;2.83;1.90;;;21.00;33.60;;;;;;5093901;28;20758;-68
2022/01/24 07:26:16;;;;;;;2.33;1.87;;;21.00;33.50;;;;;;5093756;28;20378;-69
2022/01/24 07:28:44;;;;;;;3.10;1.65;;;21.00;33.30;;;;;;5092358;28;20742;-68
2022/01/24 07:31:10;;;;;;;2.10;1.60;;;21.00;33.20;;;;;;5094092;28;20417;-61
2022/01/24 07:33:36;;;;;;;2.40;1.65;;;21.00;33.10;;;;;;5092629;28;20484;-63
2022/01/24 07:36:02;;;;;;;2.08;1.52;;;21.00;33.10;;;;;;5092039;28;20826;-62
2022/01/24 07:38:29;;;;;;;2.15;1.63;;;21.00;33.00;;;;;;5093692;28;20386;-64
2022/01/24 07:40:58;;;;;;;2.50;1.58;;;21.00;33.00;;;;;;5092018;28;20510;-73
2022/01/24 07:43:24;;;;;;;2.15;1.60;;;21.00;33.00;;;;;;5093492;28;20908;-62
2022/01/24 07:45:49;;;;;;;1.98;1.58;;;21.10;33.00;;;;;;5093546;28;20452;-63
2022/01/24 07:48:17;;;;;;;5.22;1.80;;;21.00;33.00;;;;;;5093288;28;20401;-70
2022/01/24 07:50:46;;;;;;;3.60;1.70;;;21.10;32.60;;;;;;5093034;28;20420;-71
2022/01/24 07:53:15;;;;;;;2.10;1.67;;;21.00;32.90;;;;;;5092104;28;20794;-67
2022/01/24 07:55:41;;;;;;;2.38;1.50;;;21.10;33.10;;;;;;5093297;28;20421;-66
2022/01/24 07:58:07;;;;;;;2.40;1.55;;;21.10;33.10;;;;;;5093268;28;20777;-66
2022/01/24 08:00:34;;;;;;;1.95;1.65;;;21.10;33.10;;;;;;5092852;28;20417;-70
2022/01/24 08:03:00;;;;;;;2.10;1.75;;;21.10;33.10;;;;;;5093043;28;20386;-72
2022/01/24 08:05:27;;;;;;;2.00;1.58;;;21.00;33.10;;;;;;5093006;28;20382;-68
2022/01/24 08:07:53;;;;;;;2.30;1.50;;;21.00;33.10;;;;;;5093643;28;20559;-62
2022/01/24 08:10:18;;;;;;;2.13;1.60;;;21.00;33.00;;;;;;5094161;28;20497;-71
2022/01/24 08:12:44;;;;;;;1.75;1.33;;;21.00;33.00;;;;;;5093099;28;20411;-69
2022/01/24 08:15:14;;;;;;;2.60;1.33;;;21.10;33.00;;;;;;5092904;28;20874;-70
2022/01/24 08:17:41;;;;;;;2.05;1.60;;;21.10;33.00;;;;;;5094954;28;20382;-63
2022/01/24 08:20:08;;;;;;;2.05;1.48;;;21.10;33.00;;;;;;5093844;28;20746;-62
2022/01/24 08:22:34;;;;;;;2.58;1.70;;;21.10;32.90;;;;;;5093312;28;20813;-66
2022/01/24 08:25:03;;;;;;;2.30;1.60;;;21.10;32.90;;;;;;5093054;28;20454;-62
2022/01/24 08:27:29;;;;;;;2.15;1.45;;;21.10;32.80;;;;;;5095089;28;20378;-62
2022/01/24 08:29:56;;;;;;;2.20;1.67;;;21.10;32.80;;;;;;5093118;28;20460;-71
2022/01/24 08:32:21;;;;;;;1.95;1.50;;;21.10;32.80;;;;;;5092841;28;20386;-72
2022/01/24 08:34:47;;;;;;;2.20;1.60;;;21.10;32.70;;;;;;5092144;28;20975;-71
2022/01/24 08:37:13;;;;;;;2.20;1.60;;;21.20;32.70;;;;;;5092780;28;20378;-66
2022/01/24 08:39:39;;;;;;;2.17;1.70;;;21.20;32.80;;;;;;5096070;28;20731;-65
2022/01/24 08:42:26;;;;;;;2.42;1.63;;;21.20;32.60;;;;;;5091552;28;20861;-72
2022/01/24 08:47:29;;;;;;;2.30;1.80;;;21.10;32.60;;;;;;5092472;28;20791;-61
2022/01/24 08:49:56;;;;;;;2.78;2.03;;;21.10;32.40;;;;;;5092317;28;20500;-67
2022/01/24 08:52:22;;;;;;;2.70;2.20;;;21.00;33.10;;;;;;5092005;28;20447;-69
2022/01/24 08:54:48;;;;;;;3.70;1.90;;;21.10;33.00;;;;;;5091414;28;20390;-69
2022/01/24 08:57:14;;;;;;;3.45;2.10;;;21.10;33.00;;;;;;5092216;28;20898;-66
2022/01/24 08:59:40;;;;;;;3.07;2.47;;;21.10;32.80;;;;;;5091753;28;20378;-64
2022/01/24 09:02:07;;;;;;;2.50;2.30;;;21.10;32.80;;;;;;5092147;28;20390;-68
2022/01/24 09:04:33;;;;;;;3.08;2.45;;;21.20;32.70;;;;;;5091934;28;20561;-64
2022/01/24 09:07:03;;;;;;;2.95;2.28;;;21.20;32.60;;;;;;5090835;28;20386;-61
2022/01/24 09:09:34;;;;;;;3.28;2.45;;;21.20;32.50;;;;;;5091102;28;20393;-64
2022/01/24 09:12:01;;;;;;;3.08;2.25;;;21.30;32.40;;;;;;5089092;28;20409;-63
2022/01/24 09:14:27;;;;;;;3.50;2.20;;;21.30;32.30;;;;;;5090562;28;20406;-69
2022/01/24 09:16:53;;;;;;;3.50;2.45;;;21.40;32.20;;;;;;5091445;28;20886;-65
2022/01/24 09:19:18;;;;;;;3.30;2.50;;;21.40;32.10;;;;;;5091506;28;20390;-69
2022/01/24 09:21:44;;;;;;;4.00;3.00;;;21.40;32.10;;;;;;5091712;28;20463;-71
2022/01/24 09:24:10;;;;;;;3.63;2.73;;;21.40;32.00;;;;;;5091786;28;20850;-69
2022/01/24 09:26:35;;;;;;;3.33;2.80;;;21.50;32.10;;;;;;5091508;28;20862;-62
2022/01/24 09:29:02;;;;;;;3.50;2.90;;;21.40;31.90;;;;;;5091294;28;20979;-64
2022/01/24 09:31:28;;;;;;;4.00;3.20;;;21.50;32.00;;;;;;5089482;28;20917;-69
2022/01/24 09:33:54;;;;;;;4.17;3.03;;;21.50;32.00;;;;;;5090600;28;20473;-60
2022/01/24 09:36:20;;;;;;;3.60;2.78;;;21.50;31.90;;;;;;5091233;28;20398;-64
2022/01/24 09:38:45;;;;;;;3.45;2.55;;;21.40;31.80;;;;;;5090524;28;20394;-67
2022/01/24 09:41:15;;;;;;;4.40;3.10;;;21.50;31.90;;;;;;5090702;28;20471;-69
2022/01/24 09:43:43;;;;;;;4.15;2.97;;;21.50;31.90;;;;;;5091197;28;20389;-70
2022/01/24 09:46:10;;;;;;;4.33;2.80;;;21.50;31.90;;;;;;5091224;28;20390;-65
2022/01/24 09:48:38;;;;;;;3.45;2.80;;;21.50;32.00;;;;;;5091007;28;20402;-72
2022/01/24 09:51:07;;;;;;;3.38;2.72;;;21.40;31.90;;;;;;5090228;28;21624;-71
2022/01/24 09:53:33;;;;;;;3.15;2.55;;;21.50;31.90;;;;;;5090990;28;20434;-65
2022/01/24 09:56:03;;;;;;;3.60;2.80;;;21.50;31.90;;;;;;5091186;28;20381;-67
2022/01/24 09:58:33;;;;;;;3.60;2.80;;;21.50;31.90;;;;;;5091418;28;20370;-70
2022/01/24 10:00:59;;;;;;;3.58;3.00;;;21.40;31.70;;;;;;5090710;28;20401;-71
2022/01/24 10:03:25;;;;;;;3.58;2.90;;;21.50;31.70;;;;;;5090840;28;20390;-70
2022/01/24 10:05:53;;;;;;;3.72;2.92;;;21.50;31.70;;;;;;5090968;28;20401;-68
2022/01/24 10:08:22;;;;;;;3.60;2.85;;;21.50;31.60;;;;;;5091168;28;20392;-70
2022/01/24 10:10:53;;;;;;;3.53;2.80;;;21.50;31.60;;;;;;5090850;28;20512;-70
2022/01/24 10:16:30;;;;;;;3.40;2.88;;;21.50;31.70;;;;;;5091325;28;20428;-69
2022/01/24 10:19:07;;;;;;;3.25;2.95;;;21.40;31.70;;;;;;5090601;28;20926;-70
2022/01/24 10:21:44;;;;;;;3.53;3.05;;;21.50;31.70;;;;;;5090764;28;21102;-65
2022/01/24 10:24:13;;;;;;;3.28;2.70;;;21.50;31.70;;;;;;5091009;28;20386;-71
2022/01/24 10:26:39;;;;;;;3.55;2.83;;;21.50;31.70;;;;;;5090827;28;20461;-63
2022/01/24 10:29:12;;;;;;;4.97;3.15;;;21.50;31.70;;;;;;5089599;28;20424;-62
2022/01/24 10:31:46;;;;;;;4.40;2.80;;;21.50;31.60;;;;;;5087939;28;20441;-68
2022/01/24 10:34:34;;;;;;;3.85;3.38;;;21.50;31.90;;;;;;5088552;28;20742;-69
2022/01/24 10:37:00;;;;;;;5.10;4.30;;;21.60;32.00;;;;;;5088931;28;20429;-62
2022/01/24 10:45:11;;;;;;;4.65;3.33;;;21.70;33.30;;;;;;5093698;28;20378;-65
2022/01/24 10:47:44;;;;;;;3.77;3.13;;;21.70;33.00;;;;;;5093245;28;20385;-65
2022/01/24 10:50:10;;;;;;;4.32;3.40;;;21.70;32.50;;;;;;5093103;28;20413;-70
2022/01/24 10:52:38;;;;;;;3.80;3.40;;;21.70;32.60;;;;;;5094519;28;20863;-71
2022/01/24 10:55:30;;;;;;;4.15;3.30;;;21.80;32.30;;;;;;5094048;28;20469;-71
2022/01/24 10:58:06;;;;;;;4.57;3.50;;;21.80;32.10;;;;;;5090761;28;20408;-65
2022/01/24 11:00:33;;;;;;;3.55;3.03;;;21.70;32.00;;;;;;5093087;28;20870;-69
2022/01/24 11:03:00;;;;;;;3.55;3.05;;;21.80;31.90;;;;;;5093923;28;20394;-72
2022/01/24 11:05:27;;;;;;;3.92;3.22;;;21.80;31.90;;;;;;5093959;28;20726;-72
2022/01/24 11:07:56;;;;;;;3.30;3.00;;;21.80;32.00;;;;;;5094328;28;20677;-72
2022/01/24 11:10:23;;;;;;;3.42;2.92;;;21.80;31.70;;;;;;5094106;28;20421;-69
2022/01/24 11:12:49;;;;;;;3.85;3.15;;;21.80;31.80;;;;;;5093777;28;20405;-72
2022/01/24 11:15:15;;;;;;;3.65;3.00;;;21.80;31.60;;;;;;5094266;28;20370;-71
2022/01/24 11:17:43;;;;;;;3.70;2.85;;;21.90;31.70;;;;;;5093944;28;20386;-62
2022/01/24 11:20:13;;;;;;;3.55;2.80;;;21.90;31.50;;;;;;5094131;28;20382;-72
2022/01/24 11:22:44;;;;;;;3.25;2.60;;;21.90;31.30;;;;;;5094635;28;20382;-64
2022/01/24 11:25:11;;;;;;;4.33;2.97;;;21.90;31.20;;;;;;5093585;28;20386;-69
2022/01/24 11:27:40;;;;;;;3.65;3.03;;;21.90;31.10;;;;;;5093997;28;20386;-69
2022/01/24 11:30:22;;;;;;;2.92;2.63;;;22.00;31.10;;;;;;5093720;28;20467;-71
2022/01/24 11:32:54;;;;;;;3.35;2.72;;;21.90;31.30;;;;;;5073056;28;20470;-66
2022/01/24 11:35:52;;;;;;;3.80;2.97;;;21.90;31.50;;;;;;5072205;28;20468;-70
2022/01/24 11:38:38;;;;;;;3.45;2.60;;;21.80;31.50;;;;;;5073189;28;20721;-71
2022/01/24 11:41:26;;;;;;;4.00;3.00;;;21.80;31.40;;;;;;5072845;28;20396;-70
2022/01/24 11:43:55;;;;;;;3.10;2.70;;;21.90;31.10;;;;;;5074001;28;20384;-61
2022/01/24 11:46:41;;;;;;;3.05;2.50;;;21.90;30.90;;;;;;5073211;28;20383;-65
2022/01/24 11:49:08;;;;;;;2.95;2.42;;;21.90;31.20;;;;;;5072971;28;20484;-65
2022/01/24 11:51:37;;;;;;;2.90;2.42;;;21.90;31.40;;;;;;5072995;28;20426;-62
2022/01/24 11:54:03;;;;;;;3.55;2.58;;;21.90;31.30;;;;;;5073056;28;20929;-68
2022/01/24 11:56:31;;;;;;;3.10;2.38;;;21.90;31.00;;;;;;5072478;28;20395;-67
2022/01/24 11:59:26;;;;;;;2.87;2.40;;;22.00;30.90;;;;;;5071432;28;20937;-61
2022/01/24 12:02:07;;;;;;;3.03;2.30;;;22.10;30.80;;;;;;5072925;28;20399;-71
2022/01/24 12:04:53;;;;;;;3.13;2.38;;;22.10;30.60;;;;;;5072731;28;20721;-67
2022/01/24 12:07:40;;;;;;;3.55;2.60;;;22.10;30.70;;;;;;5070889;28;20400;-65
2022/01/24 12:10:24;;;;;;;2.70;2.15;;;22.10;30.80;;;;;;5070766;28;20888;-63
2022/01/24 12:13:03;;;;;;;3.50;2.20;;;22.30;34.10;;;;;;5090376;28;20416;-70
2022/01/24 12:15:56;;;;;;;3.20;2.10;;;22.80;32.80;;;;;;5090229;28;20386;-68
2022/01/24 12:18:43;;;;;;;2.90;2.15;;;22.90;31.40;;;;;;5080295;28;20390;-69
2022/01/24 12:21:08;;;;;;;2.60;2.00;;;22.70;30.90;;;;;;5070674;28;20430;-63
2022/01/24 12:23:52;;;;;;;2.40;1.97;;;22.60;31.00;;;;;;5072319;28;20391;-72
2022/01/24 12:26:18;;;;;;;4.40;2.28;;;22.40;31.10;;;;;;5072536;28;20778;-72
2022/01/24 12:28:47;;;;;;;2.63;2.03;;;22.40;31.30;;;;;;5072074;28;20472;-66
2022/01/24 12:31:32;;;;;;;2.08;1.88;;;22.30;31.30;;;;;;5072039;28;20419;-70
2022/01/24 12:34:02;;;;;;;2.50;1.90;;;22.30;31.40;;;;;;5072940;28;20864;-71
2022/01/24 12:36:37;;;;;;;2.20;1.80;;;22.30;31.40;;;;;;5072315;28;20806;-72
2022/01/24 12:39:22;;;;;;;2.22;1.83;;;22.30;31.40;;;;;;5072030;28;20778;-72
2022/01/24 12:41:58;;;;;;;2.45;2.00;;;22.30;31.20;;;;;;5072774;28;20404;-72
2022/01/24 12:47:05;;;;;;;2.10;1.80;;;22.30;31.20;;;;;;5092394;28;20802;-68
2022/01/24 12:49:31;;;;;;;2.85;1.95;;;22.30;31.20;;;;;;5092239;28;20885;-72
2022/01/24 12:52:10;;;;;;;2.40;1.80;;;22.20;31.20;;;;;;5092303;28;20397;-66
2022/01/24 12:54:40;;;;;;;2.30;2.00;;;22.30;31.20;;;;;;5092448;28;20378;-72
2022/01/24 12:57:08;;;;;;;2.53;1.80;;;22.30;31.10;;;;;;5091196;28;20390;-63
2022/01/24 12:59:36;;;;;;;2.05;1.55;;;22.30;31.10;;;;;;5092402;28;20493;-70
2022/01/24 13:02:04;;;;;;;2.90;1.80;;;22.30;31.10;;;;;;5090199;28;20456;-72
2022/01/24 13:04:38;;;;;;;2.58;1.90;;;22.30;31.10;;;;;;5072166;28;20420;-66
2022/01/24 13:07:08;;;;;;;2.30;1.90;;;22.30;31.10;;;;;;5070938;28;20380;-62
2022/01/24 13:09:38;;;;;;;2.30;1.60;;;22.30;31.10;;;;;;5071919;28;20944;-70
2022/01/24 13:12:08;;;;;;;2.45;1.90;;;22.30;31.10;;;;;;5072065;28;20440;-63
2022/01/24 13:14:51;;;;;;;4.22;1.80;;;22.30;31.10;;;;;;5079924;28;20370;-61
2022/01/24 13:20:42;;;;;;;2.75;1.90;;;22.30;31.30;;;;;;5089810;28;20369;-62
2022/01/24 13:23:11;;;;;;;3.03;1.80;;;22.40;31.20;;;;;;5091725;28;20429;-73
2022/01/24 13:25:39;;;;;;;4.47;1.80;;;22.40;31.20;;;;;;5091937;28;20386;-65
2022/01/24 13:28:06;;;;;;;3.60;2.00;;;22.40;31.30;;;;;;5091906;28;20410;-66
2022/01/24 13:30:42;;;;;;;2.75;1.67;;;22.40;31.30;;;;;;5091818;28;20463;-66
2022/01/24 13:33:11;;;;;;;2.85;1.90;;;22.40;31.20;;;;;;5089958;28;20808;-71
2022/01/24 13:35:47;;;;;;;3.85;2.00;;;22.50;31.20;;;;;;5091510;28;20374;-64
2022/01/24 13:38:36;;;;;;;3.17;1.75;;;22.50;31.30;;;;;;5091816;28;20382;-72
2022/01/24 13:41:07;;;;;;;3.78;2.10;;;22.50;31.30;;;;;;5080558;28;20390;-68
2022/01/24 13:43:45;;;;;;;2.70;1.80;;;22.60;31.40;;;;;;5090804;28;20394;-62
2022/01/24 13:46:22;;;;;;;2.63;1.60;;;22.60;31.20;;;;;;5085203;28;20920;-61
2022/01/24 13:48:56;;;;;;;2.40;1.63;;;22.60;31.20;;;;;;5089514;28;20470;-62
2022/01/24 13:51:38;;;;;;;2.28;1.80;;;22.60;31.20;;;;;;5089933;28;20410;-61
2022/01/24 13:54:07;;;;;;;2.55;1.83;;;22.60;31.30;;;;;;5089252;28;20542;-61
2022/01/24 13:56:40;;;;;;;2.97;1.80;;;22.50;31.20;;;;;;5084653;28;20485;-71
2022/01/24 13:59:10;;;;;;;3.15;1.90;;;22.50;31.20;;;;;;5089721;28;20418;-71
2022/01/24 14:01:38;;;;;;;2.55;1.88;;;22.50;31.30;;;;;;5090201;28;20758;-70
2022/01/24 14:04:09;;;;;;;2.22;1.80;;;22.50;31.20;;;;;;5089787;28;20402;-62
2022/01/24 14:06:38;;;;;;;2.75;1.60;;;22.50;31.20;;;;;;5087779;28;20389;-67
2022/01/24 14:09:04;;;;;;;2.65;1.90;;;22.50;31.20;;;;;;5089789;28;20475;-63
2022/01/24 14:11:30;;;;;;;2.75;1.80;;;22.50;31.10;;;;;;5090157;28;20826;-66
2022/01/24 14:14:03;;;;;;;2.45;1.70;;;22.50;31.10;;;;;;5090034;28;20389;-62
2022/01/24 14:16:54;;;;;;;2.27;1.70;;;22.50;31.20;;;;;;5089945;28;20523;-70
2022/01/24 14:19:32;;;;;;;2.30;1.80;;;22.40;31.20;;;;;;5091964;28;20386;-62
2022/01/24 14:22:04;;;;;;;2.22;1.75;;;22.40;31.20;;;;;;5091002;28;20382;-61
2022/01/24 14:24:44;;;;;;;2.50;1.70;;;22.30;31.20;;;;;;5094080;28;20434;-61
2022/01/24 14:27:10;;;;;;;2.28;1.80;;;22.30;31.20;;;;;;5092267;28;20485;-68
2022/01/24 14:29:38;;;;;;;2.40;1.60;;;22.30;31.20;;;;;;5093909;28;20843;-71
2022/01/24 14:32:10;;;;;;;1.95;1.60;;;22.30;31.30;;;;;;5094122;28;20473;-61
2022/01/24 14:34:37;;;;;;;1.90;1.60;;;22.30;31.30;;;;;;5091884;28;20455;-70
2022/01/24 14:37:05;;;;;;;2.55;1.80;;;22.30;31.20;;;;;;5093509;28;20410;-71
2022/01/24 14:39:32;;;;;;;2.50;1.80;;;22.20;31.30;;;;;;5088290;28;20405;-65
2022/01/24 14:42:04;;;;;;;2.33;1.88;;;22.20;31.40;;;;;;5093065;28;20876;-73
2022/01/24 14:47:14;;;;;;;2.20;1.63;;;22.20;31.30;;;;;;5092571;28;20385;-69
2022/01/24 14:49:41;;;;;;;2.13;1.70;;;22.20;31.30;;;;;;5095782;28;20493;-65
2022/01/24 14:52:14;;;;;;;2.42;1.65;;;22.10;31.40;;;;;;5094041;28;20480;-71